地図

経路データ

SID SEASON NUMBER BASIN SUBBASIN NAME ISO_TIME NATURE LAT LON WMO_WIND WMO_PRES WMO_AGENCY TRACK_TYPE DIST2LAND LANDFALL IFLAG USA_AGENCY USA_ATCF_ID USA_LAT USA_LON USA_RECORD USA_STATUS USA_WIND USA_PRES USA_SSHS USA_R34_NE USA_R34_SE USA_R34_SW USA_R34_NW USA_R50_NE USA_R50_SE USA_R50_SW USA_R50_NW USA_R64_NE USA_R64_SE USA_R64_SW USA_R64_NW USA_POCI USA_ROCI USA_RMW USA_EYE TOKYO_LAT TOKYO_LON TOKYO_GRADE TOKYO_WIND TOKYO_PRES TOKYO_R50_DIR TOKYO_R50_LONG TOKYO_R50_SHORT TOKYO_R30_DIR TOKYO_R30_LONG TOKYO_R30_SHORT TOKYO_LAND CMA_LAT CMA_LON CMA_CAT CMA_WIND CMA_PRES HKO_LAT HKO_LON HKO_CAT HKO_WIND HKO_PRES NEWDELHI_LAT NEWDELHI_LON NEWDELHI_GRADE NEWDELHI_WIND NEWDELHI_PRES NEWDELHI_CI NEWDELHI_DP NEWDELHI_POCI REUNION_LAT REUNION_LON REUNION_TYPE REUNION_WIND REUNION_PRES REUNION_TNUM REUNION_CI REUNION_RMW REUNION_R34_NE REUNION_R34_SE REUNION_R34_SW REUNION_R34_NW REUNION_R50_NE REUNION_R50_SE REUNION_R50_SW REUNION_R50_NW REUNION_R64_NE REUNION_R64_SE REUNION_R64_SW REUNION_R64_NW BOM_LAT BOM_LON BOM_TYPE BOM_WIND BOM_PRES BOM_TNUM BOM_CI BOM_RMW BOM_R34_NE BOM_R34_SE BOM_R34_SW BOM_R34_NW BOM_R50_NE BOM_R50_SE BOM_R50_SW BOM_R50_NW BOM_R64_NE BOM_R64_SE BOM_R64_SW BOM_R64_NW BOM_ROCI BOM_POCI BOM_EYE BOM_POS_METHOD BOM_PRES_METHOD NADI_LAT NADI_LON NADI_CAT NADI_WIND NADI_PRES WELLINGTON_LAT WELLINGTON_LON WELLINGTON_WIND WELLINGTON_PRES DS824_LAT DS824_LON DS824_STAGE DS824_WIND DS824_PRES TD9636_LAT TD9636_LON TD9636_STAGE TD9636_WIND TD9636_PRES TD9635_LAT TD9635_LON TD9635_WIND TD9635_PRES TD9635_ROCI NEUMANN_LAT NEUMANN_LON NEUMANN_CLASS NEUMANN_WIND NEUMANN_PRES MLC_LAT MLC_LON MLC_CLASS MLC_WIND MLC_PRES USA_GUST BOM_GUST BOM_GUST_PER REUNION_GUST REUNION_GUST_PER USA_SEAHGT USA_SEARAD_NE USA_SEARAD_SE USA_SEARAD_SW USA_SEARAD_NW STORM_SPEED STORM_DIR
2021016S16094 2021 3 SI WA JOSHUA 2021-01-15 18:00:00 NR -16.4000 94.1000 PROVISIONAL 1617 1617 O_____________ tcvitals SI102021 -16.4000 94.1000 35 1002 0 40 50 1006 180 20 11 231
2021016S16094 2021 3 SI WA JOSHUA 2021-01-15 21:00:00 NR -16.7504 93.6482 PROVISIONAL 1686 1686 P_____________ SI102021 -16.7504 93.6482 35 1002 0 42 50 1006 180 20 9 237
2021016S16094 2021 3 SI WA JOSHUA 2021-01-16 00:00:00 NR -16.9000 93.3000 PROVISIONAL 1718 1718 O_____________ tcvitals SI102021 -16.9000 93.3000 35 1002 0 45 50 30 1006 180 20 5 270
2021016S16094 2021 3 SI WA JOSHUA 2021-01-16 03:00:00 NR -16.7497 93.1070 PROVISIONAL 1720 1720 P_____________ SI102021 -16.7497 93.1070 35 1001 0 55 62 40 1006 180 27 5 308
2021016S16094 2021 3 SI WA JOSHUA 2021-01-16 06:00:00 NR -16.6000 92.9000 PROVISIONAL 1730 1730 O_____________ tcvitals SI102021 -16.6000 92.9000 35 1001 0 65 75 50 1006 180 35 6 266
2021016S16094 2021 3 SI WA JOSHUA 2021-01-16 09:00:00 NR -16.7977 92.4654 PROVISIONAL 1778 1778 P_____________ SI102021 -16.7977 92.4654 37 999 0 65 75 50 1005 182 30 10 240
2021016S16094 2021 3 SI WA JOSHUA 2021-01-16 12:00:00 NR -17.1000 92.0000 PROVISIONAL 1840 1840 O_____________ tcvitals SI102021 -17.1000 92.0000 39 998 0 45 65 75 50 1005 185 25 9 236
2021016S16094 2021 3 SI WA JOSHUA 2021-01-16 15:00:00 NR -17.3148 91.6774 PROVISIONAL 1879 1879 P_____________ SI102021 -17.3148 91.6774 37 999 0 45 62 72 50 1005 185 25 7 235
2021016S16094 2021 3 SI WA JOSHUA 2021-01-16 18:00:00 NR -17.5000 91.4000 PROVISIONAL 1918 1918 O_____________ tcvitals SI102021 -17.5000 91.4000 35 1001 0 45 60 70 50 1005 185 25 6 239
2021016S16094 2021 3 SI WA JOSHUA 2021-01-16 21:00:00 NR -17.6348 91.1222 PROVISIONAL 1950 1950 P_____________ SI102021 -17.6348 91.1222 35 1000 0 47 60 70 50 1004 185 25 6 242
2021016S16094 2021 3 SI WA JOSHUA 2021-01-17 00:00:00 NR -17.8000 90.8000 PROVISIONAL 1988 1988 O_____________ tcvitals SI102021 -17.8000 90.8000 35 999 0 50 60 70 50 1004 185 25 9 239
2021016S16094 2021 3 SI WA JOSHUA 2021-01-17 03:00:00 NR -18.0852 90.3428 PROVISIONAL 2049 2049 P_____________ SI102021 -18.0852 90.3428 35 999 0 50 60 70 50 1004 185 25 10 235
2021016S16094 2021 3 SI MM JOSHUA 2021-01-17 06:00:00 NR -18.4000 89.9000 PROVISIONAL 2102 2102 O_____________ tcvitals SI102021 -18.4000 89.9000 35 1000 0 50 60 70 50 1004 185 25 9 229
2021016S16094 2021 3 SI MM JOSHUA 2021-01-17 09:00:00 NR -18.6722 89.6422 PROVISIONAL 2148 2148 P_____________ SI102021 -18.6722 89.6422 37 999 0 50 60 70 50 1004 185 25 7 223
2021016S16094 2021 3 SI MM JOSHUA 2021-01-17 12:00:00 NR -18.9000 89.4000 PROVISIONAL 2179 2179 O_____________ tcvitals SI102021 -18.9000 89.4000 39 998 0 50 60 70 50 1004 185 25 7 238
2021016S16094 2021 3 SI MM JOSHUA 2021-01-17 15:00:00 NR -19.0501 89.0148 PROVISIONAL 2224 2224 P_____________ SI102021 -19.0501 89.0148 39 999 0 50 60 70 50 1005 182 25 8 248
2021016S16094 2021 3 SI MM JOSHUA 2021-01-17 18:00:00 NR -19.2000 88.6000 PROVISIONAL 2258 2258 O_____________ tcvitals SI102021 -19.2000 88.6000 39 1000 0 50 60 70 50 1006 180 25 9 239
2021016S16094 2021 3 SI MM JOSHUA 2021-01-17 21:00:00 NR -19.4874 88.2428 PROVISIONAL 2308 2308 P_____________ SI102021 -19.4874 88.2428 39 999 0 50 60 70 50 1005 172 25 8 233
2021016S16094 2021 3 SI MM JOSHUA 2021-01-18 00:00:00 NR -19.7000 87.9000 PROVISIONAL 2344 2344 O_____________ tcvitals SI102021 -19.7000 87.9000 39 999 0 50 60 70 50 1005 165 25 7 257
2021016S16094 2021 3 SI MM JOSHUA 2021-01-18 03:00:00 NR -19.6373 87.5646 PROVISIONAL 2351 2351 P_____________ SI102021 -19.6373 87.5646 42 998 0 42 50 57 40 1005 155 25 7 287
2021016S16094 2021 3 SI MM JOSHUA 2021-01-18 06:00:00 NR -19.5000 87.2000 PROVISIONAL 2365 2365 O_____________ tcvitals SI102021 -19.5000 87.2000 45 998 0 35 40 45 30 1006 145 25 8 281
2021016S16094 2021 3 SI MM JOSHUA 2021-01-18 09:00:00 NR -19.4926 86.7502 PROVISIONAL 2389 2389 P_____________ SI102021 -19.4926 86.7502 42 999 0 35 40 45 30 1006 145 25 8 270
2021016S16094 2021 3 SI MM JOSHUA 2021-01-18 12:00:00 NR -19.5000 86.3000 PROVISIONAL 2419 2419 O_____________ tcvitals SI102021 -19.5000 86.3000 39 1000 0 35 40 45 30 1006 145 25 7 275
2021016S16094 2021 3 SI MM JOSHUA 2021-01-18 15:00:00 NR -19.4271 85.9647 PROVISIONAL 2429 2429 P_____________ SI102021 -19.4271 85.9647 34 1001 0 1006 132 37 7 279
2021016S16094 2021 3 SI MM JOSHUA 2021-01-18 18:00:00 NR -19.4000 85.6000 PROVISIONAL 2454 2454 O_____________ tcvitals SI102021 -19.4000 85.6000 29 1003 -1 1006 120 50 8 260
2021016S16094 2021 3 SI MM JOSHUA 2021-01-18 21:00:00 NR -19.5724 85.0958 PROVISIONAL 2504 2504 P_____________ SI102021 -19.5724 85.0958 29 1003 -1 1006 112 45 11 254
2021016S16094 2021 3 SI MM JOSHUA 2021-01-19 00:00:00 NR -19.7000 84.5000 PROVISIONAL 2553 2553 O_____________ tcvitals SI102021 -19.7000 84.5000 29 1003 -1 1006 105 40 12 272
2021016S16094 2021 3 SI MM JOSHUA 2021-01-19 03:00:00 NR -19.5228 83.8266 PROVISIONAL 2583 2583 P_____________ SI102021 -19.5228 83.8266 27 1004 -1 1006 105 40 13 288
2021016S16094 2021 3 SI MM JOSHUA 2021-01-19 06:00:00 NR -19.3000 83.2000 PROVISIONAL 2609 2609 O_____________ tcvitals SI102021 -19.3000 83.2000 25 1005 -1 1007 105 40 11 285
2021016S16094 2021 3 SI MM JOSHUA 2021-01-19 09:00:00 NR -19.2423 82.7456 PROVISIONAL 2606 2573 P_____________ SI102021 -19.2423 82.7456 25 1004 -1 1006 105 40 8 270
2021016S16094 2021 3 SI MM JOSHUA 2021-01-19 12:00:00 NR -19.3000 82.4000 PROVISIONAL 2573 O_____________ tcvitals SI102021 -19.3000 82.4000 25 1004 -1 1006 105 40 7 260

IBTrACS Databaseについて

本データベースは、米国NOAAが公開する1842年以降の世界の熱帯低気圧のベストトラックデータアーカイブInternational Best Track Archive for Climate Stewardship (IBTrACS)を、ウェブで閲覧しやすい形式に変換したものです。

最終更新日:2021-10-27